Time;durP1;ratioP1;P1;durP2;ratioP2;P2;SDS_P1;SDS_P2;PMS_P1;PMS_P2;Temp;Humidity;BMP_temperature;BMP_pressure;BME280_temperature;BME280_humidity;BME280_pressure;Samples;Min_cycle;Max_cycle;Signal;HPM_P1;HPM_P2
2023/08/20 00:00:07;;;;;;;7.10;2.58;;;;;;;21.99;61.68;100331.09;4990990;28;20534;-75
2023/08/20 00:02:37;;;;;;;5.05;2.20;;;;;;;21.96;62.17;100336.78;4977821;28;20385;-74
2023/08/20 00:05:04;;;;;;;5.80;2.30;;;;;;;21.94;62.00;100333.38;4987842;28;20065;-79
2023/08/20 00:07:31;;;;;;;5.13;1.85;;;;;;;21.93;62.21;100329.03;4971523;28;20562;-76
2023/08/20 00:09:58;;;;;;;6.95;1.60;;;;;;;21.91;62.09;100325.66;4971507;28;20054;-75
2023/08/20 00:12:26;;;;;;;5.35;1.98;;;;;;;21.90;61.52;100331.16;4980641;28;20486;-75
2023/08/20 00:15:06;;;;;;;6.60;2.17;;;;;;;21.85;61.60;100329.78;4991141;28;20046;-75
2023/08/20 00:17:37;;;;;;;6.82;1.83;;;;;;;21.82;61.69;100342.59;4973517;28;20053;-75
2023/08/20 00:20:12;;;;;;;2.83;1.58;;;;;;;21.81;61.08;100335.56;4990789;28;20065;-75
2023/08/20 00:22:41;;;;;;;4.70;1.73;;;;;;;21.77;61.60;100335.03;4982787;28;20046;-77
2023/08/20 00:25:09;;;;;;;8.77;2.03;;;;;;;21.73;61.60;100341.66;4970313;28;20514;-78
2023/08/20 00:27:35;;;;;;;5.20;2.30;;;;;;;21.70;61.82;100334.72;4971387;28;20050;-76
2023/08/20 00:30:03;;;;;;;6.10;2.47;;;;;;;21.69;62.08;100335.72;4971183;28;20051;-79
2023/08/20 00:32:30;;;;;;;6.60;2.10;;;;;;;21.67;61.93;100326.97;4991064;28;20054;-75
2023/08/20 00:34:56;;;;;;;6.10;1.80;;;;;;;21.66;61.75;100335.16;4991481;28;20681;-78
2023/08/20 00:37:23;;;;;;;2.90;1.55;;;;;;;21.64;61.56;100323.75;4994253;28;20089;-77
2023/08/20 00:42:30;;;;;;;5.40;1.90;;;;;;;21.60;61.77;100331.22;4973599;28;20070;-78
2023/08/20 00:44:57;;;;;;;3.90;1.83;;;;;;;21.59;61.80;100341.09;4974271;28;20054;-78
2023/08/20 00:47:24;;;;;;;4.65;1.90;;;;;;;21.57;61.67;100337.72;4975279;28;20102;-78
2023/08/20 00:49:50;;;;;;;6.15;2.20;;;;;;;21.55;61.75;100339.72;4975065;28;20042;-77
2023/08/20 00:52:17;;;;;;;8.15;2.30;;;;;;;21.54;61.91;100338.03;4975009;28;20047;-78
2023/08/20 00:54:46;;;;;;;4.35;2.00;;;;;;;21.54;62.00;100339.84;4975067;28;20137;-78
2023/08/20 00:57:17;;;;;;;5.60;2.22;;;;;;;21.52;62.76;100347.19;4974978;28;20047;-78
2023/08/20 00:59:48;;;;;;;4.85;1.90;;;;;;;21.55;62.73;100344.22;4973877;28;20114;-78
2023/08/20 01:02:16;;;;;;;6.38;2.38;;;;;;;21.56;62.78;100340.53;4974942;28;20058;-78
2023/08/20 01:04:43;;;;;;;5.82;2.30;;;;;;;21.59;62.81;100340.25;4975043;28;20481;-77
2023/08/20 01:07:34;;;;;;;6.18;1.80;;;;;;;21.56;63.33;100335.19;4974944;28;20061;-79
2023/08/20 01:10:01;;;;;;;8.13;2.15;;;;;;;21.62;62.71;100329.25;4974723;28;20055;-78
2023/08/20 01:12:29;;;;;;;5.85;2.30;;;;;;;21.61;62.83;100332.94;4973692;28;20055;-78
2023/08/20 01:14:55;;;;;;;7.43;2.25;;;;;;;21.61;62.82;100332.94;4974803;28;20126;-78
2023/08/20 01:17:23;;;;;;;6.95;2.83;;;;;;;21.60;63.21;100333.91;4974442;28;20129;-78
2023/08/20 01:19:49;;;;;;;7.80;2.35;;;;;;;21.59;63.22;100335.75;4974221;28;20058;-78
2023/08/20 01:22:29;;;;;;;5.95;2.60;;;;;;;21.57;63.15;100336.88;4974376;28;20062;-78
2023/08/20 01:25:24;;;;;;;7.07;2.72;;;;;;;21.54;63.22;100339.84;4974501;28;20051;-78
2023/08/20 01:28:00;;;;;;;11.75;3.10;;;;;;;21.56;63.14;100344.06;4972668;28;20108;-79
2023/08/20 01:30:27;;;;;;;8.38;3.33;;;;;;;21.58;63.02;100349.28;4973594;28;20051;-78
2023/08/20 01:32:54;;;;;;;6.80;2.85;;;;;;;21.56;63.10;100335.19;4974207;28;20539;-78
2023/08/20 01:35:24;;;;;;;9.40;3.00;;;;;;;21.54;63.16;100335.34;4974182;28;20078;-78
2023/08/20 01:37:50;;;;;;;6.60;2.78;;;;;;;21.54;63.00;100345.22;4973904;28;20138;-78
2023/08/20 01:40:17;;;;;;;6.03;2.65;;;;;;;21.53;62.92;100351.56;4973871;28;20125;-79
2023/08/20 01:42:44;;;;;;;9.68;3.10;;;;;;;21.52;62.93;100350.69;4972915;28;20054;-78
2023/08/20 01:45:10;;;;;;;6.05;2.45;;;;;;;21.51;63.00;100351.69;4974222;28;20055;-78
2023/08/20 01:47:37;;;;;;;8.45;2.88;;;;;;;21.50;62.87;100351.84;4973527;28;20046;-78
2023/08/20 01:50:04;;;;;;;7.68;3.03;;;;;;;21.47;63.12;100356.50;4973798;28;20061;-78
2023/08/20 01:52:33;;;;;;;9.90;2.97;;;;;;;21.46;63.11;100352.13;4974056;28;20050;-79
2023/08/20 01:55:00;;;;;;;6.32;3.03;;;;;;;21.44;62.98;100351.44;4973866;28;20082;-78
2023/08/20 01:57:26;;;;;;;6.85;3.08;;;;;;;21.41;63.20;100349.03;4973398;28;20054;-78
2023/08/20 01:59:53;;;;;;;10.55;2.70;;;;;;;21.40;63.35;100363.41;4973448;28;20490;-79
2023/08/20 02:02:20;;;;;;;8.93;2.55;;;;;;;21.38;63.36;100365.38;4988588;28;20484;-79
2023/08/20 02:04:46;;;;;;;6.70;2.50;;;;;;;21.38;63.28;100360.03;4973779;28;20146;-78
2023/08/20 02:07:13;;;;;;;9.48;2.55;;;;;;;21.38;63.36;100365.38;4973697;28;20102;-78
2023/08/20 02:09:40;;;;;;;9.35;2.45;;;;;;;21.41;63.56;100364.28;4973172;28;20051;-78
2023/08/20 02:12:06;;;;;;;8.32;2.60;;;;;;;21.40;63.57;100366.09;4973494;28;20077;-78
2023/08/20 02:14:36;;;;;;;8.30;2.30;;;;;;;21.42;63.49;100356.06;4973435;28;20508;-78
2023/08/20 02:17:03;;;;;;;10.93;2.50;;;;;;;21.43;63.53;100368.50;4973676;28;20043;-78
2023/08/20 02:19:29;;;;;;;9.20;2.60;;;;;;;21.44;63.40;100355.94;4972979;28;20419;-80
2023/08/20 02:21:56;;;;;;;4.72;2.42;;;;;;;21.43;63.22;100355.09;4973294;28;20058;-78
2023/08/20 02:24:23;;;;;;;5.18;2.38;;;;;;;21.43;63.23;100349.75;4973319;28;20082;-78
2023/08/20 02:26:49;;;;;;;8.50;2.75;;;;;;;21.42;63.44;100350.72;4972889;28;20491;-78
2023/08/20 02:29:16;;;;;;;4.55;2.38;;;;;;;21.41;63.35;100354.41;4973061;28;20109;-78
2023/08/20 02:31:42;;;;;;;8.07;3.03;;;;;;;21.40;63.44;100363.41;4973321;28;20058;-78
2023/08/20 02:34:09;;;;;;;10.70;3.30;;;;;;;21.39;63.79;100367.09;4973156;28;20101;-79
2023/08/20 02:36:36;;;;;;;10.18;2.80;;;;;;;21.38;63.80;100373.41;4972977;28;20085;-79
2023/08/20 02:39:04;;;;;;;7.30;2.72;;;;;;;21.38;63.90;100373.41;4972732;28;20085;-78
2023/08/20 02:41:30;;;;;;;5.78;2.42;;;;;;;21.40;63.89;100379.50;4973059;28;20102;-78
2023/08/20 02:43:57;;;;;;;6.72;2.92;;;;;;;21.41;63.81;100375.81;4973065;28;20054;-79
2023/08/20 02:46:23;;;;;;;4.00;2.30;;;;;;;21.44;63.86;100385.41;4973016;28;20046;-79
2023/08/20 02:48:50;;;;;;;4.72;2.28;;;;;;;21.45;64.03;100385.25;4972409;28;20055;-78
2023/08/20 02:51:17;;;;;;;7.75;2.50;;;;;;;21.47;63.97;100388.66;4972370;28;20047;-79
2023/08/20 02:53:43;;;;;;;4.80;1.85;;;;;;;21.50;63.30;100381.31;4972732;28;20129;-78
2023/08/20 02:56:10;;;;;;;8.90;2.25;;;;;;;21.50;63.66;100384.84;4972973;28;20086;-78
2023/08/20 02:58:36;;;;;;;5.78;2.30;;;;;;;21.52;63.62;100382.03;4971589;28;20049;-79
2023/08/20 03:01:03;;;;;;;6.38;2.55;;;;;;;21.54;63.30;100374.66;4972596;28;20082;-79
2023/08/20 03:03:29;;;;;;;10.40;2.38;;;;;;;21.54;63.29;100372.84;4972844;28;20051;-78
2023/08/20 03:05:56;;;;;;;6.22;2.65;;;;;;;21.56;63.43;100375.34;4972760;28;20141;-78
2023/08/20 03:08:22;;;;;;;9.32;2.72;;;;;;;21.55;63.56;100377.22;4972334;28;20145;-79
2023/08/20 03:10:49;;;;;;;7.60;2.85;;;;;;;21.56;63.60;100375.34;4972537;28;20079;-79
2023/08/20 03:13:15;;;;;;;4.03;1.90;;;;;;;21.55;63.66;100381.72;4987646;28;20310;-79
2023/08/20 03:15:42;;;;;;;10.75;2.60;;;;;;;21.54;63.49;100380.03;4971560;28;20086;-78
2023/08/20 03:18:09;;;;;;;6.32;2.30;;;;;;;21.55;63.36;100387.06;4972483;28;20073;-78
2023/08/20 03:20:35;;;;;;;8.23;2.47;;;;;;;21.53;63.35;100379.16;4972185;28;20062;-79
2023/08/20 03:23:02;;;;;;;4.55;1.95;;;;;;;21.52;63.40;100385.53;4972186;28;20050;-79
2023/08/20 03:25:29;;;;;;;4.30;1.90;;;;;;;21.52;63.12;100387.38;4972666;28;20090;-79
2023/08/20 03:27:55;;;;;;;5.38;2.00;;;;;;;21.51;63.39;100382.97;4972569;28;20062;-78
2023/08/20 03:30:21;;;;;;;10.00;2.63;;;;;;;21.50;63.02;100384.84;4972218;28;20038;-78
2023/08/20 03:32:48;;;;;;;8.95;2.53;;;;;;;21.49;62.94;100391.16;4971448;28;20090;-79
2023/08/20 03:35:15;;;;;;;7.97;2.53;;;;;;;21.48;63.00;100387.66;4972718;28;20412;-79
2023/08/20 03:37:42;;;;;;;6.70;2.22;;;;;;;21.46;63.15;100378.91;4972350;28;20121;-78
2023/08/20 03:40:09;;;;;;;6.00;2.20;;;;;;;21.45;63.32;100374.53;4972176;28;20090;-78
2023/08/20 03:42:35;;;;;;;5.75;2.28;;;;;;;21.44;63.13;100369.31;4972682;28;20082;-78
2023/08/20 03:45:02;;;;;;;9.23;2.63;;;;;;;21.43;63.33;100381.88;4972618;28;20043;-78
2023/08/20 03:47:29;;;;;;;3.13;1.95;;;;;;;21.41;63.38;100367.78;4972451;28;20097;-79
2023/08/20 03:49:55;;;;;;;8.07;2.42;;;;;;;21.40;63.18;100368.78;4972113;28;20051;-79
2023/08/20 03:52:22;;;;;;;6.25;2.20;;;;;;;21.40;63.57;100366.09;4972432;28;20074;-78
2023/08/20 03:54:50;;;;;;;6.03;2.55;;;;;;;21.40;63.37;100367.91;4972590;28;20415;-79
2023/08/20 03:57:16;;;;;;;9.75;2.72;;;;;;;21.39;63.54;100367.09;4972423;28;20086;-79
2023/08/20 03:59:45;;;;;;;7.80;2.50;;;;;;;21.38;63.70;100369.91;4971953;28;20053;-78
2023/08/20 04:02:11;;;;;;;4.97;2.35;;;;;;;21.37;63.43;100377.09;4972325;28;20047;-78
2023/08/20 04:04:38;;;;;;;4.57;2.38;;;;;;;21.36;63.10;100380.75;4972246;28;20077;-79
2023/08/20 04:07:04;;;;;;;9.65;2.95;;;;;;;21.33;63.05;100367.66;4972462;28;20105;-79
2023/08/20 04:09:32;;;;;;;8.52;2.90;;;;;;;21.31;63.16;100372.31;4971911;28;20130;-79
2023/08/20 04:11:59;;;;;;;7.40;3.22;;;;;;;21.29;63.26;100369.78;4990362;28;20125;-79
2023/08/20 04:14:25;;;;;;;13.52;2.83;;;;;;;21.27;63.51;100369.06;4975580;28;20090;-79
2023/08/20 04:16:52;;;;;;;7.60;2.67;;;;;;;21.25;63.25;100367.53;4975936;28;20054;-79
2023/08/20 04:19:18;;;;;;;7.30;2.67;;;;;;;21.24;63.64;100360.47;4975139;28;20497;-79
2023/08/20 04:21:45;;;;;;;8.05;3.08;;;;;;;21.22;63.36;100377.53;4975686;28;20070;-79
2023/08/20 04:24:11;;;;;;;8.82;2.92;;;;;;;21.21;63.28;100362.47;4974525;28;20496;-79
2023/08/20 04:26:38;;;;;;;10.93;3.38;;;;;;;21.19;63.46;100367.09;4975223;28;20062;-79
2023/08/20 04:29:05;;;;;;;10.32;4.03;;;;;;;21.18;63.84;100362.75;4989301;28;20062;-79
2023/08/20 04:31:32;;;;;;;8.93;3.83;;;;;;;21.17;64.01;100360.22;4974745;28;20054;-79
2023/08/20 04:33:58;;;;;;;10.73;3.85;;;;;;;21.17;64.22;100358.38;4975277;28;20098;-79
2023/08/20 04:36:25;;;;;;;9.23;4.18;;;;;;;21.17;64.82;100353.03;4974861;28;20097;-79
2023/08/20 04:38:51;;;;;;;5.95;3.08;;;;;;;21.19;64.42;100361.75;4974990;28;20055;-79
2023/08/20 04:41:18;;;;;;;6.40;3.40;;;;;;;21.20;64.80;100366.13;4975535;28;20063;-79
2023/08/20 04:43:44;;;;;;;8.60;3.47;;;;;;;21.21;64.54;100369.66;4975366;28;20046;-78
2023/08/20 04:46:15;;;;;;;7.57;3.40;;;;;;;21.24;64.82;100371.19;4974945;28;20055;-79
2023/08/20 04:48:41;;;;;;;13.20;4.10;;;;;;;21.24;64.79;100371.19;4975193;28;20109;-79
2023/08/20 04:51:08;;;;;;;9.98;3.75;;;;;;;21.26;64.87;100369.22;4974187;28;20105;-79
2023/08/20 04:53:34;;;;;;;9.60;3.65;;;;;;;21.29;64.85;100383.16;4975305;28;20138;-79
2023/08/20 04:56:01;;;;;;;8.30;3.03;;;;;;;21.31;64.85;100386.53;4974873;28;20054;-79
2023/08/20 04:58:27;;;;;;;10.52;4.30;;;;;;;21.34;64.91;100390.75;4973679;28;20135;-79
2023/08/20 05:00:54;;;;;;;9.88;3.38;;;;;;;21.37;64.83;100381.63;4973481;28;20146;-79
2023/08/20 05:03:20;;;;;;;6.82;3.08;;;;;;;21.40;64.94;100386.66;4974850;28;20054;-79
2023/08/20 05:05:50;;;;;;;9.90;3.60;;;;;;;21.41;65.03;100396.41;4975120;28;20050;-79
2023/08/20 05:08:17;;;;;;;7.80;3.60;;;;;;;21.45;64.71;100389.75;4974597;28;20047;-79
2023/08/20 05:10:43;;;;;;;10.40;3.60;;;;;;;21.46;64.41;100394.97;4974518;28;20771;-79
2023/08/20 05:13:10;;;;;;;7.68;3.58;;;;;;;21.49;64.82;100399.19;4974869;28;20086;-79
2023/08/20 05:15:37;;;;;;;6.90;3.22;;;;;;;21.50;64.59;100398.22;4974726;28;20054;-79
2023/08/20 05:18:03;;;;;;;7.43;3.42;;;;;;;21.51;64.82;100401.72;4974808;28;20113;-79
2023/08/20 05:20:30;;;;;;;8.30;3.40;;;;;;;21.53;64.78;100397.09;4973642;28;20061;-80
2023/08/20 05:22:56;;;;;;;10.30;3.58;;;;;;;21.54;64.93;100401.47;4974733;28;20142;-80
2023/08/20 05:25:23;;;;;;;10.00;3.78;;;;;;;21.55;64.71;100397.78;4973334;28;20403;-80
2023/08/20 05:27:49;;;;;;;8.07;3.38;;;;;;;21.58;64.90;100405.53;4974119;28;20134;-80
2023/08/20 05:30:16;;;;;;;8.23;3.80;;;;;;;21.60;64.81;100406.22;4973588;28;20051;-80
2023/08/20 05:32:42;;;;;;;7.82;3.28;;;;;;;21.63;65.08;100407.81;4974276;28;20074;-80
2023/08/20 05:35:09;;;;;;;6.80;3.60;;;;;;;21.65;64.88;100413.84;4974345;28;20058;-79
2023/08/20 05:37:35;;;;;;;8.18;3.70;;;;;;;21.66;64.81;100410.16;4974565;28;20158;-80
2023/08/20 05:40:02;;;;;;;6.78;3.90;;;;;;;21.69;64.96;100410.75;4973891;28;20089;-80
2023/08/20 05:42:29;;;;;;;7.38;3.65;;;;;;;21.72;65.10;100409.59;4974263;28;20050;-81
2023/08/20 05:44:55;;;;;;;10.80;4.03;;;;;;;21.77;65.01;100411.88;4973538;28;20086;-80
2023/08/20 05:47:22;;;;;;;8.50;3.97;;;;;;;21.80;65.10;100411.59;4974341;28;20047;-80
2023/08/20 05:49:48;;;;;;;6.07;3.55;;;;;;;21.84;65.29;100410.31;4973838;28;20055;-80
2023/08/20 05:52:15;;;;;;;8.65;4.30;;;;;;;21.87;65.29;100410.03;4973983;28;20052;-80
2023/08/20 05:54:41;;;;;;;7.07;4.13;;;;;;;21.91;65.33;100408.75;4974068;28;20053;-80
2023/08/20 05:57:08;;;;;;;10.63;4.03;;;;;;;21.96;65.31;100406.47;4973902;28;20459;-80
2023/08/20 05:59:34;;;;;;;9.80;4.03;;;;;;;21.99;65.61;100406.16;4973666;28;20503;-80
2023/08/20 06:02:01;;;;;;;6.80;4.38;;;;;;;22.03;65.43;100405.88;4973643;28;20146;-80
2023/08/20 06:04:29;;;;;;;9.35;4.50;;;;;;;22.07;65.34;100396.53;4973967;28;20054;-80
2023/08/20 06:06:55;;;;;;;11.70;4.68;;;;;;;22.11;65.40;100398.78;4973879;28;20047;-80
2023/08/20 06:09:22;;;;;;;10.00;4.60;;;;;;;22.17;65.66;100404.56;4973483;28;20083;-80
2023/08/20 06:11:49;;;;;;;7.03;4.13;;;;;;;22.19;65.20;100400.72;4973280;28;20082;-80
2023/08/20 06:14:15;;;;;;;8.02;4.70;;;;;;;22.24;65.33;100411.03;4973832;28;20438;-79
2023/08/20 06:16:42;;;;;;;7.95;4.97;;;;;;;22.29;65.39;100413.25;4973831;28;20086;-81
2023/08/20 06:19:08;;;;;;;6.65;4.90;;;;;;;22.33;65.50;100410.13;4973172;28;20511;-81
2023/08/20 06:21:35;;;;;;;11.95;4.85;;;;;;;22.36;65.24;100406.31;4973445;28;20488;-81
2023/08/20 06:24:01;;;;;;;11.45;5.13;;;;;;;22.39;65.15;100409.53;4973346;28;20150;-81
2023/08/20 06:26:28;;;;;;;9.85;5.50;;;;;;;22.44;65.33;100410.91;4972112;28;20573;-81
2023/08/20 06:28:54;;;;;;;8.85;5.07;;;;;;;22.47;65.08;100424.03;4973340;28;20086;-82
2023/08/20 06:31:21;;;;;;;8.80;5.00;;;;;;;22.50;65.29;100424.56;4973288;28;20050;-82
2023/08/20 06:33:47;;;;;;;9.82;5.15;;;;;;;22.55;65.32;100426.00;4971718;28;20500;-81
2023/08/20 06:36:14;;;;;;;11.02;5.60;;;;;;;22.57;65.31;100426.69;4971805;28;20061;-81
2023/08/20 06:38:40;;;;;;;9.75;5.40;;;;;;;22.61;65.06;100428.09;4971725;28;20050;-81
2023/08/20 06:41:07;;;;;;;10.32;5.10;;;;;;;22.65;65.15;100432.13;5019877;22;20136;-75
2023/08/20 06:43:33;;;;;;;8.55;5.28;;;;;;;22.69;65.26;100438.06;5030499;28;20132;-75
2023/08/20 06:46:00;;;;;;;8.43;5.47;;;;;;;22.72;64.83;100438.59;5030710;28;20127;-76
2023/08/20 06:48:26;;;;;;;11.15;5.25;;;;;;;22.77;65.07;100441.66;5030746;28;20152;-76
2023/08/20 06:50:53;;;;;;;8.52;4.70;;;;;;;22.81;64.87;100438.69;5031742;28;20482;-76
2023/08/20 06:53:19;;;;;;;12.70;5.50;;;;;;;22.85;64.68;100434.72;5023288;28;20050;-76
2023/08/20 06:55:46;;;;;;;9.38;5.15;;;;;;;22.88;65.00;100437.94;5023367;28;20467;-76
2023/08/20 06:58:12;;;;;;;7.60;4.38;;;;;;;22.92;64.74;100441.16;5017023;28;20108;-76
2023/08/20 07:00:39;;;;;;;7.40;4.75;;;;;;;22.96;64.44;100434.50;5011782;28;20084;-76
2023/08/20 07:03:05;;;;;;;8.45;4.72;;;;;;;23.01;64.45;100440.25;5015169;28;20096;-76
2023/08/20 07:05:32;;;;;;;10.38;5.10;;;;;;;23.07;64.80;100440.63;5030118;28;20049;-75
2023/08/20 07:07:59;;;;;;;7.72;4.50;;;;;;;23.11;64.66;100444.69;5030975;28;20111;-75
2023/08/20 07:10:25;;;;;;;9.07;4.50;;;;;;;23.14;64.56;100441.72;5031305;28;20061;-76
2023/08/20 07:12:52;;;;;;;8.23;4.15;;;;;;;23.18;64.75;100445.78;5031530;28;20144;-75
2023/08/20 07:15:18;;;;;;;7.05;4.32;;;;;;;23.22;64.37;100443.63;5012122;28;20081;-75
2023/08/20 07:17:45;;;;;;;6.25;4.22;;;;;;;23.25;64.51;100446.84;5011622;28;20565;-76
2023/08/20 07:20:12;;;;;;;6.95;4.30;;;;;;;23.29;64.33;100444.72;5011482;28;20049;-76
2023/08/20 07:22:38;;;;;;;8.00;4.93;;;;;;;23.33;64.43;100440.72;5011572;28;20046;-75
2023/08/20 07:25:05;;;;;;;6.68;4.50;;;;;;;23.36;64.34;100447.66;5023584;28;20136;-75
2023/08/20 07:27:32;;;;;;;9.93;4.50;;;;;;;23.40;64.50;100446.34;5031299;28;20487;-76
2023/08/20 07:29:59;;;;;;;8.25;4.90;;;;;;;23.44;64.21;100450.41;5031163;28;20563;-75
2023/08/20 07:32:26;;;;;;;10.20;5.45;;;;;;;23.48;64.10;100449.09;5031260;28;20413;-75
2023/08/20 07:34:52;;;;;;;9.70;4.95;;;;;;;23.53;64.40;100454.84;5022490;28;20058;-75
2023/08/20 07:37:19;;;;;;;10.57;5.55;;;;;;;23.58;64.21;100448.16;5011317;28;20061;-75
2023/08/20 07:39:47;;;;;;;9.45;5.47;;;;;;;23.62;64.53;100458.44;5011668;28;20072;-75
2023/08/20 07:42:14;;;;;;;9.57;5.63;;;;;;;23.67;64.29;100448.06;5011674;28;20081;-75
2023/08/20 07:44:40;;;;;;;11.48;5.50;;;;;;;23.72;64.50;100447.59;5014611;28;20100;-76
2023/08/20 07:47:07;;;;;;;10.95;5.80;;;;;;;23.78;63.99;100454.19;5023181;28;20092;-75
2023/08/20 07:49:34;;;;;;;7.85;5.75;;;;;;;23.81;64.14;100451.19;5034906;28;20057;-76
2023/08/20 07:52:00;;;;;;;8.77;5.57;;;;;;;23.86;64.31;100458.78;5035219;28;20080;-75
2023/08/20 07:54:28;;;;;;;13.45;5.75;;;;;;;23.90;64.06;100452.94;5034934;28;20545;-75
2023/08/20 07:56:54;;;;;;;8.43;6.53;;;;;;;23.96;63.93;100451.47;5034586;28;20115;-75
2023/08/20 07:59:21;;;;;;;10.93;6.80;;;;;;;24.00;63.66;100452.81;5034817;28;20132;-75
2023/08/20 08:01:48;;;;;;;10.60;7.35;;;;;;;24.04;63.61;100456.84;5035067;28;20107;-76
2023/08/20 08:04:15;;;;;;;12.60;7.07;;;;;;;24.08;63.72;100460.91;5031973;28;20532;-76
2023/08/20 08:06:41;;;;;;;8.95;6.07;;;;;;;24.14;63.51;100453.28;5015049;28;20482;-76
2023/08/20 08:09:46;;;;;;;9.95;5.97;;;;;;;24.15;63.85;100460.34;5014953;28;20054;-76
2023/08/20 08:12:13;;;;;;;11.93;6.00;;;;;;;24.26;63.95;100462.72;4973397;28;20055;-75
2023/08/20 08:14:39;;;;;;;10.23;6.93;;;;;;;24.32;63.32;100455.88;4976142;28;20058;-75
2023/08/20 08:17:07;;;;;;;8.85;6.55;;;;;;;24.37;63.64;100464.28;5005069;28;20108;-75
2023/08/20 08:19:33;;;;;;;9.43;5.95;;;;;;;24.43;63.79;100463.66;5024076;28;20045;-75
2023/08/20 08:22:00;;;;;;;8.02;6.35;;;;;;;24.48;63.34;100457.78;5034019;28;20057;-76
2023/08/20 08:24:27;;;;;;;8.45;5.95;;;;;;;24.55;63.40;100464.22;5034487;28;20489;-75
2023/08/20 08:26:53;;;;;;;8.77;6.82;;;;;;;24.62;62.91;100466.28;5015590;28;20065;-75
2023/08/20 08:29:20;;;;;;;11.00;6.22;;;;;;;24.68;63.19;100460.22;5014408;28;20054;-76
2023/08/20 08:31:46;;;;;;;9.77;6.35;;;;;;;24.74;63.26;100464.94;5014339;28;20054;-76
2023/08/20 08:34:14;;;;;;;9.80;6.50;;;;;;;24.82;63.17;100464.16;5014731;28;20085;-76
2023/08/20 08:36:40;;;;;;;9.88;6.88;;;;;;;24.89;63.05;100467.06;5028363;28;20159;-75
2023/08/20 08:39:07;;;;;;;9.90;6.20;;;;;;;24.97;62.62;100467.06;5034036;28;20464;-76
2023/08/20 08:41:39;;;;;;;10.75;7.43;;;;;;;25.03;62.37;100463.69;5032693;28;20053;-76
2023/08/20 08:44:09;;;;;;;8.65;6.65;;;;;;;25.11;62.01;100470.94;5034472;28;20053;-76
2023/08/20 08:46:38;;;;;;;9.10;6.65;;;;;;;25.20;62.75;100469.13;5023519;28;20108;-76
2023/08/20 08:49:05;;;;;;;8.20;7.25;;;;;;;25.28;62.44;100466.44;5014161;28;20041;-76
2023/08/20 08:51:32;;;;;;;10.18;6.65;;;;;;;25.37;62.03;100472.66;5014090;28;20046;-76
2023/08/20 08:54:01;;;;;;;13.38;7.95;;;;;;;25.45;61.92;100461.06;5014357;28;20093;-76
2023/08/20 08:56:28;;;;;;;9.18;7.07;;;;;;;25.54;61.98;100460.03;5019813;28;20045;-76
2023/08/20 08:58:54;;;;;;;11.68;7.18;;;;;;;25.62;61.70;100468.16;5032171;28;20050;-76
2023/08/20 09:01:21;;;;;;;13.95;9.32;;;;;;;25.71;61.59;100470.84;5033965;28;20124;-76
2023/08/20 09:03:48;;;;;;;10.10;8.73;;;;;;;25.80;61.39;100475.22;5032523;28;20053;-76
2023/08/20 09:06:14;;;;;;;11.15;7.85;;;;;;;25.89;61.22;100478.75;5033846;28;20391;-76
2023/08/20 09:08:41;;;;;;;9.88;7.90;;;;;;;25.98;61.49;100482.28;5033401;28;20103;-75
2023/08/20 09:11:07;;;;;;;10.50;7.43;;;;;;;26.05;61.51;100477.84;5031702;28;20125;-76
2023/08/20 09:13:39;;;;;;;10.57;7.57;;;;;;;26.13;61.10;100477.03;5033634;28;20050;-76
2023/08/20 09:16:08;;;;;;;11.90;8.48;;;;;;;26.22;61.03;100478.69;5033622;28;20489;-76
2023/08/20 09:18:40;;;;;;;12.88;8.02;;;;;;;26.28;59.90;100474.47;5033309;28;20123;-76
2023/08/20 09:21:11;;;;;;;11.38;8.32;;;;;;;26.36;60.35;100485.25;5017642;28;20084;-76
2023/08/20 09:23:38;;;;;;;9.68;7.82;;;;;;;26.46;60.72;100495.81;5014000;28;20053;-76
2023/08/20 09:26:07;;;;;;;10.32;7.65;;;;;;;26.53;61.46;100486.00;5013774;28;20046;-76
2023/08/20 09:28:46;;;;;;;14.10;8.20;;;;;;;26.61;60.64;100487.81;5013284;28;20486;-76
2023/08/20 09:31:14;;;;;;;9.65;7.95;;;;;;;26.73;60.18;100487.44;5013261;28;20054;-76
2023/08/20 09:33:54;;;;;;;9.90;7.60;;;;;;;26.78;60.01;100491.31;5013316;28;20494;-77
2023/08/20 09:36:35;;;;;;;13.05;6.18;;;;;;;26.87;59.79;100481.28;5013663;28;20050;-76
2023/08/20 09:39:02;;;;;;;6.18;5.50;;;;;;;27.01;59.54;100490.53;5013772;28;20054;-75
2023/08/20 09:41:30;;;;;;;11.80;7.00;;;;;;;27.11;60.03;100484.91;5028590;28;20045;-76
2023/08/20 09:43:58;;;;;;;7.68;4.72;;;;;;;27.22;59.51;100491.75;5024667;28;20050;-76
2023/08/20 09:46:27;;;;;;;9.07;5.47;;;;;;;27.34;59.32;100489.47;5013136;28;20057;-77
2023/08/20 09:48:57;;;;;;;6.00;5.05;;;;;;;27.46;58.35;100498.00;5013104;28;20666;-76
2023/08/20 09:51:26;;;;;;;6.97;5.28;;;;;;;27.56;59.62;100490.50;5030468;28;20049;-76
2023/08/20 09:54:05;;;;;;;10.25;5.78;;;;;;;27.65;57.34;100490.41;5031813;28;20052;-76
2023/08/20 09:56:38;;;;;;;5.93;4.97;;;;;;;27.77;57.41;100491.66;5032944;28;20041;-76
2023/08/20 09:59:06;;;;;;;4.15;3.70;;;;;;;27.90;58.63;100487.50;5032906;28;20049;-76
2023/08/20 10:01:33;;;;;;;9.00;4.90;;;;;;;28.01;58.77;100487.06;5031010;28;20053;-76
2023/08/20 10:03:59;;;;;;;7.25;5.03;;;;;;;28.15;58.78;100487.25;5031534;28;20049;-76
2023/08/20 10:06:27;;;;;;;6.57;4.80;;;;;;;28.26;57.87;100483.25;5032731;28;20457;-76
2023/08/20 10:08:54;;;;;;;9.63;5.78;;;;;;;28.38;56.96;100483.63;5032420;28;20045;-76
2023/08/20 10:11:21;;;;;;;6.10;5.50;;;;;;;28.48;57.25;100481.50;5019474;28;20054;-76
2023/08/20 10:13:48;;;;;;;7.28;5.70;;;;;;;28.58;57.35;100492.00;5012954;28;20104;-77
2023/08/20 10:16:20;;;;;;;8.18;5.78;;;;;;;28.66;55.45;100488.38;5012906;28;20123;-76
2023/08/20 10:18:48;;;;;;;7.22;5.63;;;;;;;28.71;55.23;100475.91;5012618;28;20053;-76
2023/08/20 10:21:14;;;;;;;6.90;5.10;;;;;;;28.74;54.56;100475.53;5020376;28;20073;-76
2023/08/20 10:23:44;;;;;;;6.75;5.10;;;;;;;28.77;54.78;100476.22;5032280;28;20049;-77
2023/08/20 10:26:11;;;;;;;7.47;5.15;;;;;;;28.77;54.50;100471.59;5032110;28;20045;-76
2023/08/20 10:28:37;;;;;;;8.68;5.80;;;;;;;28.74;54.20;100475.53;5032124;28;20113;-76
2023/08/20 10:31:09;;;;;;;7.13;4.90;;;;;;;28.71;55.31;100469.69;5028114;28;20088;-76
2023/08/20 10:33:57;;;;;;;6.82;5.20;;;;;;;28.73;55.51;100467.59;5012317;28;20053;-76
2023/08/20 10:36:30;;;;;;;9.18;5.22;;;;;;;28.81;55.34;100472.91;5011931;28;20065;-76
2023/08/20 10:39:04;;;;;;;6.10;5.50;;;;;;;28.87;56.31;100466.75;5010964;28;20452;-76
2023/08/20 10:41:33;;;;;;;13.00;6.80;;;;;;;29.02;55.73;100465.03;5015620;28;20049;-76
2023/08/20 10:44:00;;;;;;;7.95;5.72;;;;;;;29.14;55.64;100460.78;5030841;28;20049;-77
2023/08/20 10:46:30;;;;;;;7.90;5.20;;;;;;;29.28;54.59;100464.47;5030752;28;20390;-76
2023/08/20 10:49:02;;;;;;;4.55;4.15;;;;;;;29.40;52.79;100470.19;5030676;28;20079;-75
2023/08/20 10:51:37;;;;;;;7.30;5.05;;;;;;;29.57;53.90;100461.81;5028871;28;20140;-76
2023/08/20 10:54:09;;;;;;;5.68;4.50;;;;;;;29.76;54.61;100466.53;5011008;28;20594;-76
2023/08/20 10:56:38;;;;;;;5.33;4.47;;;;;;;29.98;54.10;100469.19;5010969;28;20450;-76
2023/08/20 10:59:07;;;;;;;5.85;3.85;;;;;;;30.23;53.26;100468.75;5011951;28;20049;-77
2023/08/20 11:01:34;;;;;;;5.60;4.50;;;;;;;30.48;52.10;100473.69;5011790;28;20409;-76
2023/08/20 11:04:06;;;;;;;7.13;4.07;;;;;;;30.66;51.19;100472.28;5027878;28;20050;-76
2023/08/20 11:06:33;;;;;;;5.72;3.92;;;;;;;30.84;51.03;100468.19;5011865;28;20407;-76
2023/08/20 11:09:03;;;;;;;5.15;3.58;;;;;;;31.02;50.31;100473.88;5011632;28;20104;-77
2023/08/20 11:11:30;;;;;;;4.72;4.03;;;;;;;31.28;50.55;100477.66;5011788;28;20054;-75
2023/08/20 11:13:57;;;;;;;5.28;3.90;;;;;;;31.55;50.95;100476.88;5027128;28;20140;-74
2023/08/20 11:16:24;;;;;;;5.32;3.72;;;;;;;31.79;49.10;100467.22;5031395;28;20478;-74
2023/08/20 11:18:53;;;;;;;3.42;3.10;;;;;;;32.02;48.73;100474.13;5030917;28;20144;-74
2023/08/20 11:21:20;;;;;;;5.03;3.47;;;;;;;32.21;47.55;100471.56;5031598;28;20081;-75
2023/08/20 11:23:46;;;;;;;3.90;3.50;;;;;;;32.33;48.06;100475.28;5019667;28;20575;-75
2023/08/20 11:26:17;;;;;;;3.83;3.42;;;;;;;32.54;48.41;100465.19;5011616;28;20443;-75
2023/08/20 11:28:47;;;;;;;4.15;3.60;;;;;;;32.86;48.93;100481.56;5011381;28;20052;-74